createdAt,value
2018-02-02T00:00:53.847Z,1.27
2018-02-02T00:01:57.220Z,1.20
2018-02-02T00:03:00.556Z,1.21
2018-02-02T00:04:03.685Z,1.25
2018-02-02T00:05:06.697Z,1.26
2018-02-02T00:06:09.689Z,1.27
2018-02-02T00:07:12.655Z,1.24
2018-02-02T00:08:15.904Z,1.24
2018-02-02T00:09:18.851Z,1.28
2018-02-02T00:10:21.838Z,1.25
2018-02-02T00:11:24.804Z,1.29
2018-02-02T00:12:27.737Z,1.33
2018-02-02T00:13:30.761Z,1.31
2018-02-02T00:14:34.200Z,1.22
2018-02-02T00:15:37.157Z,1.16
2018-02-02T00:16:40.177Z,1.16
2018-02-02T00:17:43.118Z,1.15
2018-02-02T00:18:46.081Z,1.11
2018-02-02T00:19:49.003Z,1.12
2018-02-02T00:20:52.617Z,1.16
2018-02-02T00:21:55.555Z,1.11
2018-02-02T00:22:58.493Z,1.09
2018-02-02T00:24:01.458Z,1.04
2018-02-02T00:25:04.479Z,0.98
2018-02-02T00:26:07.454Z,0.98
2018-02-02T00:27:10.718Z,0.99
2018-02-02T00:28:13.704Z,1.02
2018-02-02T00:29:16.658Z,1.03
2018-02-02T00:30:19.637Z,1.05
2018-02-02T00:31:22.623Z,1.06
2018-02-02T00:32:25.559Z,1.06
2018-02-02T00:33:28.808Z,1.05
2018-02-02T00:34:31.748Z,1.06
2018-02-02T00:35:34.735Z,1.05
2018-02-02T00:36:37.682Z,0.99
2018-02-02T00:37:40.658Z,0.98
2018-02-02T00:38:43.616Z,0.97
2018-02-02T00:39:46.886Z,0.96
2018-02-02T00:40:49.807Z,0.94
2018-02-02T00:41:52.649Z,0.95
2018-02-02T00:42:55.552Z,0.95
2018-02-02T00:43:58.438Z,0.94
2018-02-02T00:45:01.353Z,0.95
2018-02-02T00:46:04.584Z,0.94
2018-02-02T00:47:07.531Z,0.96
2018-02-02T00:48:10.508Z,1.05
2018-02-02T00:49:13.448Z,0.99
2018-02-02T00:50:16.705Z,1.01
2018-02-02T00:51:23.519Z,0.96
2018-02-02T00:52:26.472Z,0.97
2018-02-02T00:53:29.428Z,0.95
2018-02-02T00:54:32.401Z,0.97
2018-02-02T00:55:35.369Z,0.93
2018-02-02T00:56:38.300Z,0.93
2018-02-02T00:57:41.260Z,0.91
2018-02-02T00:58:44.536Z,0.88
2018-02-02T00:59:47.483Z,0.89
2018-02-02T01:00:50.472Z,0.89
2018-02-02T01:01:53.435Z,0.93
2018-02-02T01:02:56.389Z,0.95
2018-02-02T01:03:59.357Z,0.95
2018-02-02T01:05:02.811Z,0.93
2018-02-02T01:06:05.758Z,0.93
2018-02-02T01:07:08.738Z,0.96
2018-02-02T01:08:11.668Z,0.93
2018-02-02T01:09:14.652Z,0.93
2018-02-02T01:10:17.520Z,0.96
2018-02-02T01:11:20.680Z,0.98
2018-02-02T01:12:23.506Z,0.96
2018-02-02T01:13:26.453Z,1.02
2018-02-02T01:14:29.387Z,1.00
2018-02-02T01:15:32.324Z,1.00
2018-02-02T01:16:35.249Z,0.99
2018-02-02T01:17:38.550Z,0.96
2018-02-02T01:18:41.499Z,0.91
2018-02-02T01:19:44.408Z,0.91
2018-02-02T01:20:48.330Z,0.87
2018-02-02T01:21:51.223Z,0.85
2018-02-02T01:22:54.161Z,0.83
2018-02-02T01:23:57.336Z,0.81
2018-02-02T01:25:00.277Z,0.81
2018-02-02T01:26:03.176Z,0.81
2018-02-02T01:27:06.122Z,0.81
2018-02-02T01:28:09.058Z,0.80
2018-02-02T01:29:11.995Z,0.77
2018-02-02T01:30:15.228Z,0.78
2018-02-02T01:31:18.164Z,0.81
2018-02-02T01:32:21.117Z,0.83
2018-02-02T01:33:24.075Z,0.85
2018-02-02T01:34:27.048Z,0.85
2018-02-02T01:35:30.061Z,0.88
2018-02-02T01:36:33.317Z,0.88
2018-02-02T01:37:36.309Z,0.88
2018-02-02T01:38:39.245Z,0.90
2018-02-02T01:39:42.196Z,0.91
2018-02-02T01:40:45.158Z,0.88
2018-02-02T01:41:48.108Z,0.92
2018-02-02T01:42:51.349Z,0.92
2018-02-02T01:43:54.265Z,0.91
2018-02-02T01:44:57.203Z,0.89
2018-02-02T01:46:00.150Z,0.85
2018-02-02T01:47:03.105Z,0.87
2018-02-02T01:48:06.058Z,0.85
2018-02-02T01:49:09.230Z,0.84
2018-02-02T01:50:12.116Z,0.87
2018-02-02T01:51:15.080Z,0.86
2018-02-02T01:52:17.994Z,0.88
2018-02-02T01:53:20.889Z,0.87
2018-02-02T01:54:23.848Z,0.90
2018-02-02T01:55:27.090Z,0.89
2018-02-02T01:56:30.014Z,0.87
2018-02-02T01:57:32.934Z,0.83
2018-02-02T01:58:35.886Z,0.83
2018-02-02T01:59:38.804Z,0.90
2018-02-02T02:00:41.732Z,0.95
2018-02-02T02:01:44.995Z,0.97
2018-02-02T02:02:47.939Z,0.92
2018-02-02T02:03:50.855Z,0.93
2018-02-02T02:04:53.797Z,0.92
2018-02-02T02:05:56.805Z,0.94
2018-02-02T02:06:59.731Z,0.95
2018-02-02T02:08:02.956Z,0.92
2018-02-02T02:09:05.905Z,0.91
2018-02-02T02:10:08.853Z,0.92
2018-02-02T02:11:11.797Z,0.94
2018-02-02T02:12:14.802Z,0.93
2018-02-02T02:13:18.063Z,0.95
2018-02-02T02:14:20.992Z,0.98
2018-02-02T02:15:23.999Z,0.95
2018-02-02T02:16:26.893Z,0.98
2018-02-02T02:17:29.776Z,0.96
2018-02-02T02:18:32.606Z,1.00
2018-02-02T02:19:35.856Z,0.98
2018-02-02T02:20:38.701Z,0.99
2018-02-02T02:21:41.561Z,0.96
2018-02-02T02:22:44.555Z,0.95
2018-02-02T02:23:47.438Z,1.06
2018-02-02T02:24:50.271Z,1.02
2018-02-02T02:25:53.388Z,1.01
2018-02-02T02:26:56.215Z,0.99
2018-02-02T02:27:59.044Z,1.04
2018-02-02T02:29:01.938Z,1.03
2018-02-02T02:30:04.807Z,1.04
2018-02-02T02:31:07.701Z,1.04
2018-02-02T02:32:11.205Z,1.05
2018-02-02T02:33:14.745Z,1.02
2018-02-02T02:34:18.098Z,1.03
2018-02-02T02:35:21.084Z,1.05
2018-02-02T02:36:24.068Z,1.06
2018-02-02T02:37:27.010Z,1.02
2018-02-02T02:38:30.297Z,1.00
2018-02-02T02:39:33.229Z,1.04
2018-02-02T02:40:36.190Z,1.06
2018-02-02T02:41:39.191Z,1.05
2018-02-02T02:42:42.145Z,1.05
2018-02-02T02:43:45.089Z,1.02
2018-02-02T02:44:48.333Z,1.05
2018-02-02T02:45:51.259Z,1.01
2018-02-02T02:46:54.192Z,1.04
2018-02-02T02:47:57.171Z,1.03
2018-02-02T02:49:00.099Z,1.07
2018-02-02T02:50:03.092Z,1.02
2018-02-02T02:51:06.358Z,1.00
2018-02-02T02:52:09.308Z,1.04
2018-02-02T02:53:12.336Z,1.04
2018-02-02T02:54:15.288Z,1.07
2018-02-02T02:55:18.323Z,1.08
2018-02-02T02:56:21.301Z,1.05
2018-02-02T02:57:24.622Z,1.03
2018-02-02T02:58:27.554Z,1.05
2018-02-02T02:59:30.529Z,1.08
2018-02-02T03:00:33.501Z,1.07
2018-02-02T03:01:36.434Z,1.11
2018-02-02T03:02:39.412Z,1.09
2018-02-02T03:03:42.652Z,1.07
2018-02-02T03:04:45.600Z,1.08
2018-02-02T03:05:48.547Z,1.06
2018-02-02T03:06:51.487Z,1.09
2018-02-02T03:07:54.438Z,1.08
2018-02-02T03:08:57.398Z,1.08
2018-02-02T03:10:00.635Z,1.09
2018-02-02T03:11:03.615Z,1.10
2018-02-02T03:12:06.587Z,1.12
2018-02-02T03:13:09.547Z,1.10
2018-02-02T03:14:12.515Z,1.07
2018-02-02T03:15:15.506Z,1.08
2018-02-02T03:16:18.811Z,1.10
2018-02-02T03:17:21.808Z,1.13
2018-02-02T03:18:24.798Z,1.12
2018-02-02T03:19:27.773Z,1.14
2018-02-02T03:20:30.738Z,1.12
2018-02-02T03:21:33.697Z,1.12
2018-02-02T03:22:36.965Z,1.14
2018-02-02T03:23:39.962Z,1.11
2018-02-02T03:24:42.927Z,1.13
2018-02-02T03:25:45.857Z,1.14
2018-02-02T03:26:48.826Z,1.16
2018-02-02T03:27:51.759Z,1.17
2018-02-02T03:28:55.007Z,1.14
2018-02-02T03:29:57.935Z,1.15
2018-02-02T03:31:00.901Z,1.13
2018-02-02T03:32:03.926Z,1.17
2018-02-02T03:33:06.864Z,1.17
2018-02-02T03:34:09.819Z,1.13
2018-02-02T03:35:13.073Z,1.14
2018-02-02T03:36:16.047Z,1.16
2018-02-02T03:37:18.998Z,1.18
2018-02-02T03:38:21.996Z,1.17
2018-02-02T03:39:25.006Z,1.18
2018-02-02T03:40:27.951Z,1.19
2018-02-02T03:41:31.274Z,1.19
2018-02-02T03:42:34.260Z,1.22
2018-02-02T03:43:37.213Z,1.18
2018-02-02T03:44:40.149Z,1.21
2018-02-02T03:45:43.096Z,1.22
2018-02-02T03:46:46.060Z,1.20
2018-02-02T03:47:49.037Z,1.17
2018-02-02T03:48:51.991Z,1.17
2018-02-02T03:49:54.940Z,1.16
2018-02-02T03:50:59.079Z,1.25
2018-02-02T03:52:02.141Z,1.22
2018-02-02T03:53:05.375Z,1.16
2018-02-02T03:54:08.335Z,1.18
2018-02-02T03:55:11.335Z,1.16
2018-02-02T03:56:14.291Z,1.19
2018-02-02T03:57:17.218Z,1.18
2018-02-02T03:58:20.196Z,1.23
2018-02-02T03:59:23.431Z,1.21
2018-02-02T04:00:26.376Z,1.21
2018-02-02T04:01:29.347Z,1.27
2018-02-02T04:02:32.303Z,1.25
2018-02-02T04:03:35.262Z,1.23
2018-02-02T04:04:38.221Z,1.23
2018-02-02T04:05:41.491Z,1.25
2018-02-02T04:06:44.432Z,1.25
2018-02-02T04:07:47.384Z,1.32
2018-02-02T04:08:50.392Z,1.33
2018-02-02T04:09:53.394Z,1.30
2018-02-02T04:10:56.385Z,1.33
2018-02-02T04:11:59.673Z,1.30
2018-02-02T04:13:02.634Z,1.32
2018-02-02T04:14:05.574Z,1.36
2018-02-02T04:15:08.496Z,1.36
2018-02-02T04:16:11.470Z,1.34
2018-02-02T04:17:14.495Z,1.37
2018-02-02T04:18:17.773Z,1.35
2018-02-02T04:19:20.726Z,1.34
2018-02-02T04:20:24.265Z,1.32
2018-02-02T04:21:27.168Z,1.34
2018-02-02T04:22:30.376Z,1.35
2018-02-02T04:23:33.425Z,1.35
2018-02-02T04:24:36.712Z,1.36
2018-02-02T04:25:39.653Z,1.31
2018-02-02T04:26:42.604Z,1.34
2018-02-02T04:27:45.561Z,1.35
2018-02-02T04:28:48.532Z,1.34
2018-02-02T04:29:51.491Z,1.35
2018-02-02T04:30:54.989Z,1.37
2018-02-02T04:31:57.956Z,1.38
2018-02-02T04:33:00.932Z,1.39
2018-02-02T04:34:04.067Z,1.35
2018-02-02T04:35:07.381Z,1.34
2018-02-02T04:36:10.404Z,1.36
2018-02-02T04:37:14.534Z,1.34
2018-02-02T04:38:17.586Z,1.34
2018-02-02T04:39:20.496Z,1.24
2018-02-02T04:40:23.374Z,1.17
2018-02-02T04:41:26.335Z,1.15
2018-02-02T04:42:29.196Z,1.13
2018-02-02T04:43:32.370Z,1.07
2018-02-02T04:44:35.273Z,1.06
2018-02-02T04:45:38.190Z,1.05
2018-02-02T04:46:41.072Z,1.01
2018-02-02T04:47:43.975Z,0.98
2018-02-02T04:48:47.049Z,0.94
2018-02-02T04:49:50.032Z,0.88
2018-02-02T04:50:53.021Z,0.84
2018-02-02T04:51:56.097Z,0.81
2018-02-02T04:53:00.050Z,0.71
2018-02-02T04:54:03.077Z,0.66
2018-02-02T04:55:06.387Z,0.60
2018-02-02T04:56:09.386Z,0.59
2018-02-02T04:57:12.406Z,0.56
2018-02-02T04:58:15.410Z,0.56
2018-02-02T04:59:18.533Z,0.51
2018-02-02T05:00:21.526Z,0.49
2018-02-02T05:01:24.788Z,0.47
2018-02-02T05:02:27.777Z,0.50
2018-02-02T05:03:30.759Z,0.50
2018-02-02T05:04:33.717Z,0.49
2018-02-02T05:05:36.738Z,0.49
2018-02-02T05:06:39.719Z,0.46
2018-02-02T05:07:42.979Z,0.47
2018-02-02T05:08:45.944Z,0.48
2018-02-02T05:09:49.047Z,0.45
2018-02-02T05:10:52.088Z,0.46
2018-02-02T05:11:55.198Z,0.47
2018-02-02T05:12:58.278Z,0.52
2018-02-02T05:14:01.500Z,0.53
2018-02-02T05:15:04.458Z,0.51
2018-02-02T05:16:07.434Z,0.51
2018-02-02T05:17:11.007Z,0.48
2018-02-02T05:18:14.160Z,0.49
2018-02-02T05:19:17.280Z,0.44
2018-02-02T05:20:20.572Z,0.45
2018-02-02T05:21:23.551Z,0.50
2018-02-02T05:22:26.528Z,0.50
2018-02-02T05:23:29.536Z,0.48
2018-02-02T05:24:32.518Z,0.48
2018-02-02T05:25:35.368Z,0.47
2018-02-02T05:26:38.536Z,0.45
2018-02-02T05:27:41.444Z,0.43
2018-02-02T05:28:44.304Z,0.43
2018-02-02T05:29:47.174Z,0.42
2018-02-02T05:30:50.132Z,0.42
2018-02-02T05:31:53.167Z,0.41
2018-02-02T05:32:56.559Z,0.43
2018-02-02T05:33:59.508Z,0.43
2018-02-02T05:35:02.457Z,0.48
2018-02-02T05:36:05.441Z,0.47
2018-02-02T05:37:08.429Z,0.49
2018-02-02T05:38:11.412Z,0.43
2018-02-02T05:39:14.858Z,0.46
2018-02-02T05:40:17.848Z,0.49
2018-02-02T05:41:20.788Z,0.48
2018-02-02T05:42:23.750Z,0.50
2018-02-02T05:43:26.737Z,0.53
2018-02-02T05:44:29.717Z,0.56
2018-02-02T05:45:32.977Z,0.53
2018-02-02T05:46:35.978Z,0.56
2018-02-02T05:47:38.948Z,0.57
2018-02-02T05:48:42.546Z,0.58
2018-02-02T05:49:45.529Z,0.58
2018-02-02T05:50:48.469Z,0.60
2018-02-02T05:51:51.874Z,0.62
2018-02-02T05:52:54.856Z,0.61
2018-02-02T05:53:57.885Z,0.61
2018-02-02T05:55:00.849Z,0.60
2018-02-02T05:56:03.816Z,0.58
2018-02-02T05:57:06.762Z,0.57
2018-02-02T05:58:10.043Z,0.53
2018-02-02T05:59:13.034Z,0.56
2018-02-02T06:00:16.040Z,0.60
2018-02-02T06:01:19.047Z,0.59
2018-02-02T06:02:21.977Z,0.57
2018-02-02T06:03:24.974Z,0.62
2018-02-02T06:04:28.289Z,0.65
2018-02-02T06:05:31.290Z,0.66
2018-02-02T06:06:34.230Z,0.66
2018-02-02T06:07:37.214Z,0.63
2018-02-02T06:08:40.200Z,0.61
2018-02-02T06:09:43.206Z,0.62
2018-02-02T06:10:46.755Z,0.61
2018-02-02T06:11:50.187Z,0.56
2018-02-02T06:12:53.144Z,0.58
2018-02-02T06:13:56.069Z,0.58
2018-02-02T06:14:59.104Z,0.63
2018-02-02T06:16:02.082Z,0.62
2018-02-02T06:17:05.366Z,0.55
2018-02-02T06:18:08.570Z,0.56
2018-02-02T06:19:11.516Z,0.58
2018-02-02T06:20:14.474Z,0.61
2018-02-02T06:21:17.450Z,0.59
2018-02-02T06:22:20.398Z,0.62
2018-02-02T06:23:23.745Z,0.63
2018-02-02T06:24:26.701Z,0.58
2018-02-02T06:25:29.699Z,0.61
2018-02-02T06:26:32.659Z,0.52
2018-02-02T06:27:35.717Z,0.52
2018-02-02T06:28:38.699Z,0.57
2018-02-02T06:29:42.098Z,0.59
2018-02-02T06:30:45.138Z,0.60
2018-02-02T06:31:48.186Z,0.60
2018-02-02T06:32:51.234Z,0.62
2018-02-02T06:33:54.196Z,0.62
2018-02-02T06:34:57.138Z,0.65
2018-02-02T06:36:00.406Z,0.65
2018-02-02T06:37:03.495Z,0.62
2018-02-02T06:38:06.451Z,0.58
2018-02-02T06:39:09.832Z,0.61
2018-02-02T06:40:12.892Z,0.60
2018-02-02T06:41:15.856Z,0.62
2018-02-02T06:42:19.207Z,0.63
2018-02-02T06:43:22.305Z,0.66
2018-02-02T06:44:25.253Z,0.61
2018-02-02T06:45:28.300Z,0.61
2018-02-02T06:46:31.289Z,0.64
2018-02-02T06:47:34.265Z,0.65
2018-02-02T06:48:37.216Z,0.66
2018-02-02T06:49:40.291Z,0.65
2018-02-02T06:50:43.240Z,0.63
2018-02-02T06:51:46.233Z,0.65
2018-02-02T06:52:49.461Z,0.71
2018-02-02T06:53:52.463Z,0.70
2018-02-02T06:54:55.423Z,0.70
2018-02-02T06:55:58.376Z,0.73
2018-02-02T06:57:01.343Z,0.73
2018-02-02T06:58:04.334Z,0.67
2018-02-02T06:59:07.598Z,0.67
2018-02-02T07:00:10.534Z,0.65
2018-02-02T07:01:13.537Z,0.67
2018-02-02T07:02:16.540Z,0.72
2018-02-02T07:03:19.522Z,0.82
2018-02-02T07:04:22.557Z,0.83
2018-02-02T07:05:25.828Z,0.78
2018-02-02T07:06:28.785Z,0.80
2018-02-02T07:07:31.756Z,0.79
2018-02-02T07:08:34.734Z,0.80
2018-02-02T07:09:37.729Z,0.77
2018-02-02T07:10:40.685Z,0.80
2018-02-02T07:11:44.221Z,0.80
2018-02-02T07:12:47.210Z,0.84
2018-02-02T07:13:50.257Z,0.90
2018-02-02T07:14:53.222Z,0.86
2018-02-02T07:15:56.179Z,0.93
2018-02-02T07:16:59.079Z,0.96
2018-02-02T07:18:02.389Z,0.93
2018-02-02T07:19:05.289Z,0.87
2018-02-02T07:20:08.258Z,0.97
2018-02-02T07:21:11.155Z,1.02
2018-02-02T07:22:14.082Z,0.95
2018-02-02T07:23:17.003Z,0.94
2018-02-02T07:24:20.321Z,0.94
2018-02-02T07:25:23.208Z,0.94
2018-02-02T07:26:26.062Z,0.87
2018-02-02T07:27:28.942Z,0.86
2018-02-02T07:28:31.853Z,0.85
2018-02-02T07:29:34.812Z,0.84
2018-02-02T07:30:38.285Z,0.85
2018-02-02T07:31:41.389Z,0.88
2018-02-02T07:32:44.980Z,0.95
2018-02-02T07:33:48.001Z,0.93
2018-02-02T07:34:50.974Z,0.94
2018-02-02T07:35:53.931Z,0.98
2018-02-02T07:36:57.241Z,0.97
2018-02-02T07:38:00.271Z,1.00
2018-02-02T07:39:03.445Z,0.99
2018-02-02T07:40:06.515Z,0.97
2018-02-02T07:41:09.658Z,1.06
2018-02-02T07:42:12.617Z,1.01
2018-02-02T07:43:15.967Z,0.97
2018-02-02T07:44:18.871Z,1.02
2018-02-02T07:45:21.846Z,1.07
2018-02-02T07:46:24.801Z,1.06
2018-02-02T07:47:27.759Z,1.08
2018-02-02T07:48:30.733Z,1.10
2018-02-02T07:49:34.073Z,1.10
2018-02-02T07:50:37.047Z,1.07
2018-02-02T07:51:40.091Z,1.08
2018-02-02T07:52:43.073Z,1.10
2018-02-02T07:53:46.032Z,1.07
2018-02-02T07:54:49.045Z,1.10
2018-02-02T07:55:52.444Z,1.13
2018-02-02T07:56:55.417Z,1.10
2018-02-02T07:57:58.409Z,1.09
2018-02-02T07:59:01.377Z,1.07
2018-02-02T08:00:04.358Z,1.10
2018-02-02T08:01:11.237Z,1.14
2018-02-02T08:02:14.145Z,1.22
2018-02-02T08:03:17.024Z,1.18
2018-02-02T08:04:19.947Z,1.13
2018-02-02T08:05:22.824Z,1.14
2018-02-02T08:06:25.945Z,1.15
2018-02-02T08:07:29.226Z,1.15
2018-02-02T08:08:32.160Z,1.23
2018-02-02T08:09:35.174Z,1.20
2018-02-02T08:10:38.178Z,1.22
2018-02-02T08:11:41.120Z,1.24
2018-02-02T08:12:44.091Z,1.23
2018-02-02T08:13:47.427Z,1.21
2018-02-02T08:14:50.395Z,1.20
2018-02-02T08:15:53.357Z,1.24
2018-02-02T08:16:56.328Z,1.26
2018-02-02T08:17:59.305Z,1.27
2018-02-02T08:19:02.381Z,1.25
2018-02-02T08:20:05.548Z,1.29
2018-02-02T08:21:09.991Z,1.24
2018-02-02T08:22:12.996Z,1.30
2018-02-02T08:23:16.082Z,1.35
2018-02-02T08:24:19.051Z,1.37
2018-02-02T08:25:21.959Z,1.37
2018-02-02T08:26:25.268Z,1.35
2018-02-02T08:27:28.239Z,1.40
2018-02-02T08:28:31.240Z,1.43
2018-02-02T08:29:34.134Z,1.41
2018-02-02T08:30:37.266Z,1.49
2018-02-02T08:31:40.267Z,1.46
2018-02-02T08:32:43.636Z,1.49
2018-02-02T08:33:48.512Z,1.44
2018-02-02T08:34:51.543Z,1.45
2018-02-02T08:35:54.524Z,1.44
2018-02-02T08:36:57.509Z,1.51
2018-02-02T08:38:00.425Z,1.43
2018-02-02T08:39:03.807Z,1.43
2018-02-02T08:40:06.718Z,1.46
2018-02-02T08:41:09.622Z,1.50
2018-02-02T08:42:12.546Z,1.48
2018-02-02T08:43:15.474Z,1.50
2018-02-02T08:44:18.440Z,1.51
2018-02-02T08:45:21.902Z,1.48
2018-02-02T08:46:24.775Z,1.45
2018-02-02T08:47:27.719Z,1.48
2018-02-02T08:48:30.697Z,1.50
2018-02-02T08:49:33.710Z,1.51
2018-02-02T08:50:36.674Z,1.52
2018-02-02T08:51:40.108Z,1.52
2018-02-02T08:52:43.164Z,1.52
2018-02-02T08:53:46.161Z,1.47
2018-02-02T08:54:51.795Z,1.49
2018-02-02T08:55:54.832Z,1.47
2018-02-02T08:56:57.780Z,1.49
2018-02-02T08:58:01.126Z,1.47
2018-02-02T08:59:04.166Z,1.50
2018-02-02T09:00:07.149Z,1.52
2018-02-02T09:01:13.976Z,1.53
2018-02-02T09:02:16.947Z,1.49
2018-02-02T09:03:20.179Z,1.46
2018-02-02T09:04:23.075Z,1.48
2018-02-02T09:05:26.047Z,1.51
2018-02-02T09:06:29.076Z,1.58
2018-02-02T09:07:32.080Z,1.67
2018-02-02T09:08:35.028Z,1.70
2018-02-02T09:09:37.950Z,1.76
2018-02-02T09:10:41.019Z,1.76
2018-02-02T09:11:43.969Z,1.89
2018-02-02T09:12:46.954Z,1.83
2018-02-02T09:13:49.905Z,1.87
2018-02-02T09:14:53.217Z,1.89
2018-02-02T09:15:56.209Z,1.83
2018-02-02T09:16:59.177Z,1.85
2018-02-02T09:18:02.135Z,1.82
2018-02-02T09:19:05.048Z,1.81
2018-02-02T09:20:08.023Z,1.94
2018-02-02T09:21:11.228Z,1.98
2018-02-02T09:22:14.213Z,1.99
2018-02-02T09:23:17.347Z,2.00
2018-02-02T09:24:20.298Z,2.35
2018-02-02T09:25:23.177Z,2.57
2018-02-02T09:26:26.031Z,2.76
2018-02-02T09:27:27.946Z,2.83
2018-02-02T09:28:30.850Z,2.85
2018-02-02T09:29:33.882Z,2.84
2018-02-02T09:30:36.944Z,2.39
2018-02-02T09:31:39.931Z,2.18
2018-02-02T09:32:42.882Z,2.28
2018-02-02T09:33:46.281Z,2.28
2018-02-02T09:34:49.262Z,2.23
2018-02-02T09:35:52.230Z,2.25
2018-02-02T09:36:55.580Z,2.32
2018-02-02T09:37:58.596Z,2.12
2018-02-02T09:39:01.581Z,2.08
2018-02-02T09:40:04.928Z,2.19
2018-02-02T09:41:08.159Z,2.26
2018-02-02T09:42:11.118Z,2.31
2018-02-02T09:43:14.150Z,2.23
2018-02-02T09:44:17.118Z,2.27
2018-02-02T09:45:20.091Z,2.35
2018-02-02T09:46:23.387Z,2.27
2018-02-02T09:47:26.381Z,2.19
2018-02-02T09:48:29.328Z,2.25
2018-02-02T09:49:32.343Z,2.21
2018-02-02T09:50:35.309Z,2.30
2018-02-02T09:51:38.290Z,2.39
2018-02-02T09:52:41.638Z,2.47
2018-02-02T09:53:44.617Z,2.51
2018-02-02T09:54:47.583Z,2.56
2018-02-02T09:55:50.576Z,2.65
2018-02-02T09:56:53.539Z,2.63
2018-02-02T09:57:56.518Z,2.75
2018-02-02T09:58:59.817Z,2.68
2018-02-02T10:00:02.913Z,2.71
2018-02-02T10:01:05.940Z,2.72
2018-02-02T10:02:08.955Z,2.61
2018-02-02T10:03:11.999Z,2.48
2018-02-02T10:04:15.009Z,2.41
2018-02-02T10:05:17.983Z,2.47
2018-02-02T10:06:20.950Z,2.53
2018-02-02T10:07:24.000Z,2.58
2018-02-02T10:08:27.014Z,2.55
2018-02-02T10:09:30.057Z,2.48
2018-02-02T10:10:33.409Z,2.45
2018-02-02T10:11:36.398Z,2.28
2018-02-02T10:12:40.260Z,2.30
2018-02-02T10:13:43.270Z,2.42
2018-02-02T10:14:46.374Z,2.43
2018-02-02T10:15:49.360Z,2.53
2018-02-02T10:16:52.667Z,2.53
2018-02-02T10:17:55.627Z,2.42
2018-02-02T10:18:58.639Z,2.48
2018-02-02T10:20:01.634Z,2.42
2018-02-02T10:21:04.597Z,2.42
2018-02-02T10:22:07.486Z,2.29
2018-02-02T10:23:10.697Z,2.23
2018-02-02T10:24:13.650Z,2.39
2018-02-02T10:25:16.544Z,2.32
2018-02-02T10:26:19.476Z,2.37
2018-02-02T10:27:22.452Z,2.29
2018-02-02T10:28:25.430Z,2.31
2018-02-02T10:29:28.859Z,2.28
2018-02-02T10:30:31.846Z,2.25
2018-02-02T10:31:34.861Z,2.20
2018-02-02T10:32:37.831Z,2.20
2018-02-02T10:33:40.802Z,2.06
2018-02-02T10:34:43.794Z,2.05
2018-02-02T10:35:47.081Z,2.08
2018-02-02T10:36:50.090Z,2.06
2018-02-02T10:37:53.126Z,2.06
2018-02-02T10:38:56.120Z,2.12
2018-02-02T10:39:59.157Z,2.03
2018-02-02T10:41:02.051Z,2.05
2018-02-02T10:42:05.406Z,2.05
2018-02-02T10:43:08.300Z,2.13
2018-02-02T10:44:11.210Z,2.07
2018-02-02T10:45:14.123Z,2.10
2018-02-02T10:46:17.039Z,2.12
2018-02-02T10:47:20.009Z,2.04
2018-02-02T10:48:23.291Z,1.95
2018-02-02T10:49:26.294Z,2.02
2018-02-02T10:50:29.306Z,2.07
2018-02-02T10:51:32.324Z,2.02
2018-02-02T10:52:35.349Z,2.00
2018-02-02T10:53:38.993Z,2.01
2018-02-02T10:54:42.362Z,2.08
2018-02-02T10:55:45.312Z,2.08
2018-02-02T10:56:48.353Z,2.05
2018-02-02T10:57:51.389Z,2.02
2018-02-02T10:58:54.481Z,2.04
2018-02-02T10:59:57.492Z,2.04
2018-02-02T11:01:04.651Z,2.07
2018-02-02T11:02:11.510Z,2.07
2018-02-02T11:03:19.340Z,2.12
2018-02-02T11:04:22.429Z,2.09
2018-02-02T11:05:25.417Z,2.11
2018-02-02T11:06:28.397Z,2.12
2018-02-02T11:07:31.795Z,2.15
2018-02-02T11:08:34.788Z,2.09
2018-02-02T11:09:37.772Z,2.08
2018-02-02T11:10:40.741Z,2.05
2018-02-02T11:11:43.768Z,2.07
2018-02-02T11:12:46.967Z,2.07
2018-02-02T11:13:51.266Z,2.08
2018-02-02T11:14:54.279Z,2.07
2018-02-02T11:15:57.297Z,2.10
2018-02-02T11:17:00.406Z,2.17
2018-02-02T11:18:03.400Z,2.20
2018-02-02T11:19:07.241Z,2.09
2018-02-02T11:20:10.637Z,2.10
2018-02-02T11:21:13.664Z,2.14
2018-02-02T11:22:16.736Z,2.11
2018-02-02T11:23:19.773Z,2.13
2018-02-02T11:24:22.763Z,2.26
2018-02-02T11:25:25.752Z,2.37
2018-02-02T11:26:29.230Z,2.27
2018-02-02T11:27:32.274Z,2.13
2018-02-02T11:28:35.286Z,2.12
2018-02-02T11:29:38.250Z,2.17
2018-02-02T11:30:41.255Z,2.19
2018-02-02T11:31:44.221Z,2.18
2018-02-02T11:32:47.563Z,2.17
2018-02-02T11:33:50.528Z,2.23
2018-02-02T11:34:53.535Z,2.19
2018-02-02T11:35:56.545Z,2.25
2018-02-02T11:36:59.507Z,2.37
2018-02-02T11:38:02.577Z,2.37
2018-02-02T11:39:06.095Z,2.38
2018-02-02T11:40:09.174Z,2.38
2018-02-02T11:41:12.205Z,2.39
2018-02-02T11:42:15.230Z,2.38
2018-02-02T11:43:18.189Z,2.36
2018-02-02T11:44:21.135Z,2.34
2018-02-02T11:45:24.420Z,2.43
2018-02-02T11:46:27.438Z,2.42
2018-02-02T11:47:30.459Z,2.44
2018-02-02T11:48:33.544Z,2.48
2018-02-02T11:49:36.577Z,2.43
2018-02-02T11:50:39.663Z,2.50
2018-02-02T11:51:42.998Z,2.53
2018-02-02T11:52:46.016Z,2.40
2018-02-02T11:53:48.962Z,2.38
2018-02-02T11:54:51.975Z,2.30
2018-02-02T11:55:54.886Z,2.37
2018-02-02T11:56:58.011Z,2.34
2018-02-02T11:58:01.431Z,2.14
2018-02-02T11:59:04.380Z,2.18
2018-02-02T12:00:07.262Z,2.26
2018-02-02T12:01:10.257Z,2.25
2018-02-02T12:02:13.292Z,2.18
2018-02-02T12:03:16.331Z,2.23
2018-02-02T12:04:19.869Z,2.19
2018-02-02T12:05:23.043Z,2.13
2018-02-02T12:06:26.177Z,2.24
2018-02-02T12:07:29.330Z,2.22
2018-02-02T12:08:32.263Z,2.14
2018-02-02T12:09:35.236Z,2.17
2018-02-02T12:10:38.510Z,2.12
2018-02-02T12:11:41.537Z,2.18
2018-02-02T12:12:44.548Z,2.18
2018-02-02T12:13:47.679Z,2.12
2018-02-02T12:14:50.699Z,2.10
2018-02-02T12:15:53.742Z,2.10
2018-02-02T12:16:57.040Z,2.12
2018-02-02T12:18:00.289Z,2.18
2018-02-02T12:19:03.452Z,2.23
2018-02-02T12:20:06.719Z,2.19
2018-02-02T12:21:09.945Z,2.16
2018-02-02T12:22:13.215Z,2.07
2018-02-02T12:23:16.845Z,2.06
2018-02-02T12:24:20.064Z,1.99
2018-02-02T12:25:23.300Z,2.06
2018-02-02T12:26:26.507Z,1.99
2018-02-02T12:27:29.733Z,2.04
2018-02-02T12:28:32.902Z,1.95
2018-02-02T12:29:36.578Z,1.92
2018-02-02T12:30:39.868Z,2.08
2018-02-02T12:31:42.966Z,2.16
2018-02-02T12:32:46.143Z,1.97
2018-02-02T12:33:49.366Z,1.88
2018-02-02T12:34:52.710Z,1.89
2018-02-02T12:35:56.333Z,1.85
2018-02-02T12:36:59.479Z,1.93
2018-02-02T12:38:02.493Z,2.05
2018-02-02T12:39:05.660Z,1.95
2018-02-02T12:40:08.690Z,2.02
2018-02-02T12:41:11.856Z,2.15
2018-02-02T12:42:15.345Z,2.16
2018-02-02T12:43:18.318Z,2.13
2018-02-02T12:44:21.336Z,2.10
2018-02-02T12:45:24.409Z,2.11
2018-02-02T12:46:27.421Z,2.20
2018-02-02T12:47:30.401Z,2.09
2018-02-02T12:48:33.753Z,2.09
2018-02-02T12:49:36.691Z,2.09
2018-02-02T12:50:39.650Z,1.96
2018-02-02T12:51:42.635Z,2.00
2018-02-02T12:52:45.609Z,1.98
2018-02-02T12:53:48.572Z,1.93
2018-02-02T12:54:52.076Z,1.94
2018-02-02T12:55:55.072Z,2.00
2018-02-02T12:56:58.070Z,1.88
2018-02-02T12:58:01.142Z,1.94
2018-02-02T12:59:04.404Z,1.89
2018-02-02T13:00:07.424Z,1.83
2018-02-02T13:01:10.870Z,1.85
2018-02-02T13:02:13.859Z,1.84
2018-02-02T13:03:16.980Z,1.87
2018-02-02T13:04:20.067Z,2.04
2018-02-02T13:05:23.072Z,2.19
2018-02-02T13:06:26.039Z,2.21
2018-02-02T13:07:29.339Z,2.28
2018-02-02T13:08:32.420Z,2.19
2018-02-02T13:09:35.448Z,2.14
2018-02-02T13:10:38.470Z,2.18
2018-02-02T13:11:41.634Z,2.12
2018-02-02T13:12:44.598Z,2.12
2018-02-02T13:13:50.358Z,2.09
2018-02-02T13:14:53.711Z,2.25
2018-02-02T13:15:56.782Z,2.37
2018-02-02T13:16:59.811Z,2.35
2018-02-02T13:18:02.850Z,2.34
2018-02-02T13:19:05.815Z,2.23
2018-02-02T13:20:09.628Z,2.21
2018-02-02T13:21:12.637Z,2.04
2018-02-02T13:22:15.660Z,2.06
2018-02-02T13:23:18.682Z,1.94
2018-02-02T13:24:21.652Z,1.98
2018-02-02T13:25:24.603Z,1.90
2018-02-02T13:26:27.957Z,1.83
2018-02-02T13:27:30.905Z,1.91
2018-02-02T13:28:33.813Z,2.03
2018-02-02T13:29:36.810Z,1.95
2018-02-02T13:30:39.666Z,1.87
2018-02-02T13:31:42.694Z,1.92
2018-02-02T13:32:46.092Z,1.93
2018-02-02T13:33:49.085Z,1.95
2018-02-02T13:34:52.117Z,1.98
2018-02-02T13:35:55.075Z,1.94
2018-02-02T13:36:58.057Z,1.97
2018-02-02T13:38:01.053Z,2.03
2018-02-02T13:39:04.736Z,1.98
2018-02-02T13:40:07.690Z,1.89
2018-02-02T13:41:10.726Z,1.99
2018-02-02T13:42:13.698Z,1.96
2018-02-02T13:43:16.720Z,1.88
2018-02-02T13:44:19.675Z,1.86
2018-02-02T13:45:22.925Z,1.89
2018-02-02T13:46:25.912Z,1.87
2018-02-02T13:47:29.514Z,1.84
2018-02-02T13:48:32.584Z,1.83
2018-02-02T13:49:35.514Z,1.80
2018-02-02T13:50:38.520Z,1.75
2018-02-02T13:51:42.019Z,1.70
2018-02-02T13:52:44.966Z,1.73
2018-02-02T13:53:48.022Z,1.67
2018-02-02T13:54:51.105Z,1.64
2018-02-02T13:55:54.832Z,1.69
2018-02-02T13:56:57.923Z,1.71
2018-02-02T13:58:01.398Z,1.70
2018-02-02T13:59:04.419Z,1.73
2018-02-02T14:00:07.454Z,1.75